createdAt,value
2018-02-27T00:02:09.054Z,6.83
2018-02-27T00:04:36.525Z,9.10
2018-02-27T00:07:03.982Z,7.03
2018-02-27T00:09:31.467Z,8.43
2018-02-27T00:11:59.703Z,6.67
2018-02-27T00:14:27.206Z,6.63
2018-02-27T00:16:54.678Z,6.90
2018-02-27T00:19:22.903Z,7.43
2018-02-27T00:21:50.388Z,7.17
2018-02-27T00:24:17.858Z,8.57
2018-02-27T00:26:45.328Z,7.40
2018-02-27T00:29:12.793Z,8.63
2018-02-27T00:31:40.253Z,8.33
2018-02-27T00:34:07.700Z,8.47
2018-02-27T00:36:35.220Z,7.77
2018-02-27T00:39:02.688Z,7.00
2018-02-27T00:41:30.164Z,8.30
2018-02-27T00:43:57.620Z,7.77
2018-02-27T00:46:25.094Z,7.40
2018-02-27T00:48:52.608Z,7.53
2018-02-27T00:51:20.045Z,8.50
2018-02-27T00:53:47.514Z,7.67
2018-02-27T00:56:14.994Z,9.90
2018-02-27T00:58:43.215Z,7.67
2018-02-27T01:01:10.691Z,8.80
2018-02-27T01:03:38.157Z,7.97
2018-02-27T01:06:05.647Z,8.50
2018-02-27T01:08:33.111Z,8.73
2018-02-27T01:11:00.581Z,10.27
2018-02-27T01:13:28.818Z,8.23
2018-02-27T01:15:56.301Z,10.60
2018-02-27T01:18:23.765Z,8.90
2018-02-27T01:20:51.245Z,8.07
2018-02-27T01:23:19.495Z,8.60
2018-02-27T01:25:47.723Z,9.17
2018-02-27T01:28:15.211Z,8.33
2018-02-27T01:30:42.664Z,8.50
2018-02-27T01:33:10.136Z,8.40
2018-02-27T01:35:37.597Z,8.93
2018-02-27T01:38:05.104Z,11.30
2018-02-27T01:40:32.574Z,7.77
2018-02-27T01:43:00.072Z,8.20
2018-02-27T01:45:27.548Z,9.20
2018-02-27T01:47:55.021Z,8.33
2018-02-27T01:50:22.468Z,7.70
2018-02-27T01:52:49.941Z,8.77
2018-02-27T01:55:17.493Z,9.80
2018-02-27T01:57:44.969Z,10.23
2018-02-27T02:00:12.467Z,11.10
2018-02-27T02:02:39.962Z,8.00
2018-02-27T02:05:08.207Z,10.93
2018-02-27T02:07:35.682Z,8.50
2018-02-27T02:10:03.126Z,9.57
2018-02-27T02:12:30.596Z,7.97
2018-02-27T02:14:58.060Z,8.80
2018-02-27T02:17:25.558Z,8.63
2018-02-27T02:19:53.787Z,8.20
2018-02-27T02:22:21.264Z,11.07
2018-02-27T02:24:48.741Z,9.63
2018-02-27T02:27:16.208Z,8.20
2018-02-27T02:29:44.446Z,9.70
2018-02-27T02:32:11.908Z,10.47
2018-02-27T02:34:39.396Z,9.47
2018-02-27T02:37:06.862Z,8.10
2018-02-27T02:39:34.353Z,10.37
2018-02-27T02:45:02.736Z,8.63
2018-02-27T02:47:30.965Z,8.47
2018-02-27T02:49:58.456Z,9.63
2018-02-27T02:52:25.906Z,9.37
2018-02-27T02:54:53.381Z,8.77
2018-02-27T02:57:20.848Z,9.90
2018-02-27T02:59:48.338Z,9.40
2018-02-27T03:02:15.793Z,9.23
2018-02-27T03:04:43.267Z,8.63
2018-02-27T03:07:10.732Z,9.23
2018-02-27T03:09:38.189Z,8.83
2018-02-27T03:12:05.649Z,8.03
2018-02-27T03:14:33.132Z,10.00
2018-02-27T03:17:00.593Z,8.90
2018-02-27T03:19:28.064Z,11.07
2018-02-27T03:21:55.514Z,8.60
2018-02-27T03:24:22.980Z,11.13
2018-02-27T03:26:51.213Z,8.90
2018-02-27T03:29:19.451Z,9.47
2018-02-27T03:31:46.914Z,9.23
2018-02-27T03:34:14.380Z,10.27
2018-02-27T03:36:41.843Z,10.30
2018-02-27T03:39:09.312Z,11.33
2018-02-27T03:41:36.777Z,9.80
2018-02-27T03:44:04.249Z,12.53
2018-02-27T03:46:31.722Z,14.13
2018-02-27T03:48:59.940Z,11.33
2018-02-27T03:51:27.399Z,9.20
2018-02-27T03:53:54.862Z,9.97
2018-02-27T03:56:22.342Z,10.17
2018-02-27T03:58:49.808Z,11.43
2018-02-27T04:01:18.034Z,11.53
2018-02-27T04:03:46.261Z,11.07
2018-02-27T04:06:13.732Z,10.63
2018-02-27T04:08:41.202Z,10.30
2018-02-27T04:11:08.670Z,9.63
2018-02-27T04:13:36.133Z,11.17
2018-02-27T04:16:03.599Z,8.87
2018-02-27T04:18:31.071Z,11.30
2018-02-27T04:20:58.534Z,10.50
2018-02-27T04:23:25.994Z,9.60
2018-02-27T04:25:53.455Z,9.97
2018-02-27T04:28:20.909Z,12.23
2018-02-27T04:30:48.386Z,11.70
2018-02-27T04:33:15.844Z,10.83
2018-02-27T04:35:43.308Z,9.40
2018-02-27T04:38:10.781Z,10.77
2018-02-27T04:40:39.026Z,10.47
2018-02-27T04:43:06.482Z,11.87
2018-02-27T04:45:33.941Z,9.63
2018-02-27T04:48:01.408Z,10.10
2018-02-27T04:50:28.910Z,10.80
2018-02-27T04:52:56.369Z,10.43
2018-02-27T04:55:23.844Z,12.90
2018-02-27T04:57:52.077Z,10.97
2018-02-27T05:00:19.544Z,12.60
2018-02-27T05:02:47.026Z,12.27
2018-02-27T05:05:14.488Z,11.00
2018-02-27T05:07:41.955Z,13.03
2018-02-27T05:10:09.429Z,9.77
2018-02-27T05:12:37.665Z,10.80
2018-02-27T05:15:05.136Z,10.30
2018-02-27T05:17:32.608Z,11.27
2018-02-27T05:20:00.129Z,10.27
2018-02-27T05:22:27.601Z,11.90
2018-02-27T05:24:55.065Z,10.80
2018-02-27T05:27:22.533Z,11.30
2018-02-27T05:29:50.010Z,11.00
2018-02-27T05:32:17.484Z,10.50
2018-02-27T05:34:44.944Z,13.53
2018-02-27T05:37:12.426Z,10.37
2018-02-27T05:39:39.893Z,12.53
2018-02-27T05:42:08.165Z,14.97
2018-02-27T05:44:35.633Z,14.23
2018-02-27T05:47:03.127Z,11.87
2018-02-27T05:49:31.349Z,12.00
2018-02-27T05:51:58.825Z,13.60
2018-02-27T05:54:26.288Z,12.00
2018-02-27T05:56:53.775Z,13.50
2018-02-27T05:59:22.009Z,10.97
2018-02-27T06:01:49.491Z,14.37
2018-02-27T06:04:16.949Z,13.33
2018-02-27T06:06:44.413Z,12.33
2018-02-27T06:09:11.888Z,16.40
2018-02-27T06:11:39.359Z,13.67
2018-02-27T06:14:06.820Z,14.73
2018-02-27T06:16:35.062Z,11.47
2018-02-27T06:19:02.552Z,12.37
2018-02-27T06:21:30.037Z,12.30
2018-02-27T06:23:58.257Z,13.33
2018-02-27T06:26:25.747Z,11.70
2018-02-27T06:28:53.220Z,13.17
2018-02-27T06:31:20.685Z,13.63
2018-02-27T06:33:48.158Z,12.07
2018-02-27T06:36:15.611Z,14.03
2018-02-27T06:38:43.092Z,11.10
2018-02-27T06:41:11.338Z,11.83
2018-02-27T06:43:38.817Z,12.87
2018-02-27T06:46:06.288Z,13.47
2018-02-27T06:48:33.790Z,14.03
2018-02-27T06:51:01.260Z,15.00
2018-02-27T06:53:28.739Z,13.97
2018-02-27T06:55:56.211Z,13.87
2018-02-27T06:58:23.706Z,11.73
2018-02-27T07:00:51.955Z,15.53
2018-02-27T07:03:21.426Z,12.87
2018-02-27T07:05:48.903Z,14.60
2018-02-27T07:08:16.399Z,10.37
2018-02-27T07:10:43.865Z,11.10
2018-02-27T07:13:11.376Z,11.00
2018-02-27T07:15:38.858Z,12.90
2018-02-27T07:18:06.326Z,13.83
2018-02-27T07:20:33.795Z,10.83
2018-02-27T07:23:01.274Z,14.13
2018-02-27T07:25:28.736Z,15.33
2018-02-27T07:27:56.303Z,12.27
2018-02-27T07:30:23.769Z,10.90
2018-02-27T07:32:51.221Z,13.13
2018-02-27T07:35:18.714Z,13.20
2018-02-27T07:37:46.167Z,12.70
2018-02-27T07:40:13.777Z,12.27
2018-02-27T07:42:41.313Z,12.97
2018-02-27T07:45:09.550Z,12.83
2018-02-27T07:47:37.018Z,12.20
2018-02-27T07:50:05.266Z,12.33
2018-02-27T07:52:32.780Z,14.07
2018-02-27T07:55:00.237Z,17.83
2018-02-27T07:57:27.686Z,11.87
2018-02-27T07:59:55.167Z,12.53
2018-02-27T08:02:22.640Z,12.33
2018-02-27T08:04:50.891Z,12.73
2018-02-27T08:07:18.351Z,12.80
2018-02-27T08:09:45.877Z,12.00
2018-02-27T08:12:13.334Z,12.67
2018-02-27T08:14:40.812Z,14.00
2018-02-27T08:17:08.265Z,12.60
2018-02-27T08:19:35.752Z,13.20
2018-02-27T08:22:03.214Z,12.13
2018-02-27T08:24:30.692Z,11.10
2018-02-27T08:26:58.155Z,12.10
2018-02-27T08:29:25.659Z,10.17
2018-02-27T08:31:53.138Z,13.37
2018-02-27T08:34:20.608Z,12.50
2018-02-27T08:36:48.089Z,11.13
2018-02-27T08:39:15.557Z,12.07
2018-02-27T08:41:43.017Z,11.60
2018-02-27T08:44:11.312Z,12.37
2018-02-27T08:46:39.486Z,13.30
2018-02-27T08:49:06.948Z,14.80
2018-02-27T08:51:34.420Z,12.73
2018-02-27T08:54:01.891Z,11.37
2018-02-27T08:56:29.381Z,10.37
2018-02-27T08:58:57.627Z,10.63
2018-02-27T09:01:25.101Z,12.90
2018-02-27T09:03:52.582Z,10.27
2018-02-27T09:06:20.828Z,11.37
2018-02-27T09:08:48.293Z,11.10
2018-02-27T09:11:15.772Z,14.67
2018-02-27T09:13:43.231Z,11.90
2018-02-27T09:16:10.893Z,12.87
2018-02-27T09:18:38.355Z,10.63
2018-02-27T09:21:05.867Z,12.70
2018-02-27T09:23:33.435Z,11.87
2018-02-27T09:26:00.906Z,13.87
2018-02-27T09:28:28.362Z,13.80
2018-02-27T09:30:55.837Z,12.60
2018-02-27T09:33:23.294Z,14.60
2018-02-27T09:35:50.779Z,9.60
2018-02-27T09:38:18.296Z,12.77
2018-02-27T09:40:45.714Z,10.43
2018-02-27T09:43:13.193Z,10.13
2018-02-27T09:45:40.802Z,12.00
2018-02-27T09:48:08.263Z,10.80
2018-02-27T09:50:35.725Z,10.70
2018-02-27T09:53:03.193Z,10.87
2018-02-27T09:55:30.690Z,10.20
2018-02-27T09:57:58.175Z,10.53
2018-02-27T10:00:25.669Z,10.90
2018-02-27T10:02:53.130Z,11.50
2018-02-27T10:05:20.663Z,13.63
2018-02-27T10:07:48.902Z,13.83
2018-02-27T10:10:16.368Z,12.27
2018-02-27T10:12:43.842Z,12.93
2018-02-27T10:15:11.302Z,13.80
2018-02-27T10:17:38.833Z,11.63
2018-02-27T10:20:06.396Z,12.50
2018-02-27T10:22:33.870Z,12.20
2018-02-27T10:25:01.325Z,14.47
2018-02-27T10:27:28.831Z,13.30
2018-02-27T10:29:56.284Z,12.53
2018-02-27T10:32:23.743Z,12.60
2018-02-27T10:34:51.213Z,11.10
2018-02-27T10:37:18.676Z,13.47
2018-02-27T10:39:46.137Z,12.53
2018-02-27T10:42:13.625Z,13.07
2018-02-27T10:44:41.867Z,11.17
2018-02-27T10:47:09.348Z,13.17
2018-02-27T10:49:36.864Z,12.63
2018-02-27T10:52:04.341Z,11.73
2018-02-27T10:54:31.893Z,12.60
2018-02-27T10:56:59.357Z,13.73
2018-02-27T10:59:26.843Z,13.40
2018-02-27T11:01:56.154Z,11.90
2018-02-27T11:04:23.626Z,14.40
2018-02-27T11:06:51.099Z,11.17
2018-02-27T11:09:18.586Z,11.77
2018-02-27T11:11:47.821Z,11.63
2018-02-27T11:14:15.298Z,15.10
2018-02-27T11:16:42.839Z,15.67
2018-02-27T11:19:10.326Z,11.87
2018-02-27T11:21:37.803Z,12.97
2018-02-27T11:24:05.292Z,12.00
2018-02-27T11:26:32.757Z,13.23
2018-02-27T11:29:01.004Z,13.70
2018-02-27T11:31:28.468Z,10.63
2018-02-27T11:33:55.942Z,14.00
2018-02-27T11:36:23.492Z,12.97
2018-02-27T11:38:50.947Z,10.53
2018-02-27T11:41:18.434Z,12.43
2018-02-27T11:43:45.907Z,11.27
2018-02-27T11:46:13.372Z,13.63
2018-02-27T11:48:40.876Z,13.33
2018-02-27T11:51:08.373Z,13.57
2018-02-27T11:53:35.840Z,13.63
2018-02-27T11:56:03.308Z,13.93
2018-02-27T11:58:30.785Z,12.53
2018-02-27T12:00:58.256Z,13.23
2018-02-27T12:03:26.505Z,13.90
2018-02-27T12:05:53.969Z,13.77
2018-02-27T12:08:21.467Z,13.87
2018-02-27T12:10:49.712Z,12.60
2018-02-27T12:13:17.210Z,12.07
2018-02-27T12:15:45.440Z,12.83
2018-02-27T12:18:12.932Z,13.53
2018-02-27T12:20:40.409Z,12.50
2018-02-27T12:23:08.666Z,11.97
2018-02-27T12:25:36.148Z,13.67
2018-02-27T12:28:03.628Z,12.87
2018-02-27T12:30:31.930Z,12.27
2018-02-27T12:32:59.382Z,12.17
2018-02-27T12:35:26.867Z,12.70
2018-02-27T12:37:54.374Z,15.23
2018-02-27T12:40:21.877Z,13.70
2018-02-27T12:42:49.401Z,15.73
2018-02-27T12:45:16.865Z,9.90
2018-02-27T12:47:44.340Z,13.43
2018-02-27T12:50:12.604Z,13.63
2018-02-27T12:52:40.929Z,12.10
2018-02-27T12:55:08.407Z,15.97
2018-02-27T12:57:35.896Z,12.70
2018-02-27T13:00:03.381Z,11.90
2018-02-27T13:02:30.888Z,13.53
2018-02-27T13:04:58.419Z,16.13
2018-02-27T13:07:25.847Z,14.17
2018-02-27T13:09:53.328Z,13.33
2018-02-27T13:12:20.800Z,15.50
2018-02-27T13:14:48.298Z,12.33
2018-02-27T13:17:15.808Z,14.17
2018-02-27T13:19:43.278Z,10.73
2018-02-27T13:22:10.752Z,11.27
2018-02-27T13:24:38.354Z,13.53
2018-02-27T13:27:05.846Z,14.17
2018-02-27T13:29:33.385Z,13.10
2018-02-27T13:32:00.874Z,12.93
2018-02-27T13:34:28.500Z,18.80
2018-02-27T13:36:55.985Z,10.93
2018-02-27T13:39:23.478Z,12.10
2018-02-27T13:41:51.759Z,13.83
2018-02-27T13:44:19.209Z,14.73
2018-02-27T13:46:46.691Z,13.33
2018-02-27T13:49:14.175Z,12.77
2018-02-27T13:51:42.422Z,12.97
2018-02-27T13:54:09.885Z,14.23
2018-02-27T13:56:37.364Z,13.33
2018-02-27T13:59:04.842Z,13.53
2018-02-27T14:01:32.438Z,13.70
2018-02-27T14:03:59.905Z,15.33
2018-02-27T14:06:27.423Z,16.23
2018-02-27T14:08:54.891Z,18.03
2018-02-27T14:11:22.390Z,13.47
2018-02-27T14:13:49.875Z,14.63
2018-02-27T14:16:17.377Z,16.57
2018-02-27T14:18:44.903Z,15.93
2018-02-27T14:21:12.432Z,15.13
2018-02-27T14:23:40.689Z,13.63
2018-02-27T14:26:08.953Z,14.63
2018-02-27T14:28:36.477Z,13.90
2018-02-27T14:31:03.979Z,15.50
2018-02-27T14:33:31.545Z,15.73
2018-02-27T14:35:59.052Z,16.17
2018-02-27T14:38:26.539Z,15.73
2018-02-27T14:40:54.035Z,17.60
2018-02-27T14:43:21.525Z,14.10
2018-02-27T14:45:49.836Z,16.67
2018-02-27T14:48:17.350Z,16.77
2018-02-27T14:50:44.868Z,14.43
2018-02-27T14:53:12.399Z,15.60
2018-02-27T14:55:39.949Z,16.40
2018-02-27T14:58:08.214Z,16.13
2018-02-27T15:00:35.799Z,14.93
2018-02-27T15:03:05.567Z,14.27
2018-02-27T15:05:33.070Z,16.00
2018-02-27T15:08:02.445Z,17.27
2018-02-27T15:10:30.834Z,17.40
2018-02-27T15:12:58.490Z,19.47
2018-02-27T15:15:26.795Z,17.37
2018-02-27T15:17:55.277Z,17.40
2018-02-27T15:20:23.251Z,17.13
2018-02-27T15:22:51.623Z,17.43
2018-02-27T15:25:20.680Z,15.23
2018-02-27T15:27:50.087Z,16.93
2018-02-27T15:30:18.448Z,16.67
2018-02-27T15:32:46.038Z,14.63
2018-02-27T15:35:13.617Z,15.60
2018-02-27T15:37:41.168Z,17.83
2018-02-27T15:40:08.760Z,14.47
2018-02-27T15:42:36.368Z,17.80
2018-02-27T15:45:05.147Z,18.03
2018-02-27T15:47:36.198Z,17.77
2018-02-27T15:50:07.805Z,17.83
2018-02-27T15:52:35.300Z,18.07
2018-02-27T15:55:03.556Z,20.00
2018-02-27T15:57:33.594Z,19.60
2018-02-27T16:00:01.910Z,19.67
2018-02-27T16:02:32.725Z,18.17
2018-02-27T16:05:02.309Z,17.20
2018-02-27T16:07:29.877Z,18.20
2018-02-27T16:09:57.365Z,20.90
2018-02-27T16:12:24.869Z,20.70
2018-02-27T16:14:53.118Z,19.80
2018-02-27T16:17:20.610Z,18.13
2018-02-27T16:19:48.841Z,19.00
2018-02-27T16:22:16.336Z,20.57
2018-02-27T16:24:43.832Z,19.87
2018-02-27T16:27:12.142Z,23.57
2018-02-27T16:29:39.620Z,19.10
2018-02-27T16:32:07.092Z,20.73
2018-02-27T16:34:34.588Z,20.77
2018-02-27T16:37:02.841Z,23.13
2018-02-27T16:39:30.332Z,19.67
2018-02-27T16:41:58.574Z,20.70
2018-02-27T16:44:26.073Z,22.50
2018-02-27T16:46:54.317Z,17.93
2018-02-27T16:49:21.803Z,21.83
2018-02-27T16:51:50.064Z,19.57
2018-02-27T16:54:17.542Z,20.30
2018-02-27T16:56:45.021Z,18.50
2018-02-27T16:59:13.275Z,18.43
2018-02-27T17:01:40.752Z,20.20
2018-02-27T17:04:09.027Z,21.97
2018-02-27T17:06:36.512Z,20.60
2018-02-27T17:09:05.376Z,18.43
2018-02-27T17:11:32.888Z,22.87
2018-02-27T17:14:00.449Z,20.93
2018-02-27T17:16:27.934Z,19.43
2018-02-27T17:18:55.412Z,18.97
2018-02-27T17:21:22.942Z,19.10
2018-02-27T17:23:50.414Z,21.33
2018-02-27T17:26:17.923Z,19.87
2018-02-27T17:28:45.434Z,22.37
2018-02-27T17:31:12.928Z,23.37
2018-02-27T17:33:40.411Z,20.10
2018-02-27T17:36:07.886Z,24.73
2018-02-27T17:38:36.202Z,22.77
2018-02-27T17:41:03.668Z,27.87
2018-02-27T17:43:31.203Z,23.80
2018-02-27T17:45:59.463Z,20.23
2018-02-27T17:48:28.181Z,20.90
2018-02-27T17:50:56.424Z,20.87
2018-02-27T17:53:24.712Z,20.00
2018-02-27T17:55:52.320Z,19.53
2018-02-27T17:58:20.351Z,19.87
2018-02-27T18:00:48.626Z,20.40
2018-02-27T18:03:16.135Z,22.63
2018-02-27T18:05:43.906Z,21.93
2018-02-27T18:08:11.704Z,20.83
2018-02-27T18:10:39.190Z,20.33
2018-02-27T18:13:06.686Z,20.23
2018-02-27T18:15:34.954Z,19.60
2018-02-27T18:18:02.440Z,24.80
2018-02-27T18:20:30.021Z,24.13
2018-02-27T18:22:57.521Z,24.10
2018-02-27T18:25:27.054Z,22.87
2018-02-27T18:27:55.671Z,21.33
2018-02-27T18:30:23.305Z,22.70
2018-02-27T18:32:50.859Z,21.27
2018-02-27T18:35:19.784Z,25.27
2018-02-27T18:37:48.134Z,23.40
2018-02-27T18:40:15.620Z,22.83
2018-02-27T18:42:44.698Z,26.37
2018-02-27T18:45:12.185Z,22.17
2018-02-27T18:47:40.454Z,35.70
2018-02-27T18:50:07.913Z,52.77
2018-02-27T18:52:35.440Z,62.17
2018-02-27T18:55:02.914Z,49.97
2018-02-27T18:57:31.287Z,34.07
2018-02-27T18:59:58.767Z,36.30
2018-02-27T19:02:26.262Z,28.57
2018-02-27T19:04:54.498Z,27.97
2018-02-27T19:07:21.985Z,28.60
2018-02-27T19:09:49.481Z,28.70
2018-02-27T19:12:19.665Z,27.07
2018-02-27T19:14:47.144Z,25.60
2018-02-27T19:17:14.648Z,23.03
2018-02-27T19:19:42.127Z,25.80
2018-02-27T19:22:09.627Z,29.97
2018-02-27T19:24:37.122Z,26.60
2018-02-27T19:27:04.696Z,27.50
2018-02-27T19:29:32.172Z,28.13
2018-02-27T19:31:59.669Z,25.90
2018-02-27T19:34:27.149Z,27.50
2018-02-27T19:36:54.615Z,26.13
2018-02-27T19:39:22.088Z,26.20
2018-02-27T19:41:50.378Z,24.20
2018-02-27T19:44:18.635Z,26.40
2018-02-27T19:46:46.109Z,26.73
2018-02-27T19:49:14.379Z,24.27
2018-02-27T19:51:41.872Z,24.07
2018-02-27T19:54:09.374Z,24.57
2018-02-27T19:56:36.942Z,30.00
2018-02-27T19:59:05.226Z,30.50
2018-02-27T20:01:32.788Z,27.27
2018-02-27T20:04:00.314Z,27.07
2018-02-27T20:06:27.804Z,25.03
2018-02-27T20:08:55.481Z,25.17
2018-02-27T20:11:22.982Z,25.00
2018-02-27T20:13:50.453Z,31.27
2018-02-27T20:16:18.701Z,30.30
2018-02-27T20:18:46.191Z,29.07
2018-02-27T20:21:13.750Z,28.47
2018-02-27T20:23:47.039Z,29.07
2018-02-27T20:26:14.532Z,28.77
2018-02-27T20:28:47.768Z,25.07
2018-02-27T20:31:15.254Z,28.77
2018-02-27T20:33:42.759Z,30.10
2018-02-27T20:36:10.242Z,24.13
2018-02-27T20:38:43.371Z,24.27
2018-02-27T20:41:10.851Z,26.03
2018-02-27T20:43:39.118Z,23.67
2018-02-27T20:46:06.588Z,25.67
2018-02-27T20:48:34.065Z,25.00
2018-02-27T20:51:02.300Z,23.03
2018-02-27T20:53:34.152Z,26.77
2018-02-27T20:56:01.623Z,32.40
2018-02-27T20:58:29.124Z,37.57
2018-02-27T21:00:56.594Z,34.30
2018-02-27T21:03:24.864Z,32.70
2018-02-27T21:05:52.369Z,28.20
2018-02-27T21:08:19.905Z,31.70
2018-02-27T21:10:47.361Z,40.70
2018-02-27T21:13:15.657Z,32.27
2018-02-27T21:15:43.889Z,36.13
2018-02-27T21:18:11.413Z,39.20
2018-02-27T21:20:39.628Z,40.67
2018-02-27T21:23:07.091Z,45.80
2018-02-27T21:25:34.572Z,40.27
2018-02-27T21:28:02.049Z,38.83
2018-02-27T21:30:29.527Z,34.90
2018-02-27T21:32:57.752Z,36.07
2018-02-27T21:35:25.225Z,41.33
2018-02-27T21:37:52.883Z,37.60
2018-02-27T21:40:21.144Z,36.27
2018-02-27T21:42:48.626Z,40.70
2018-02-27T21:45:16.127Z,37.97
2018-02-27T21:47:44.557Z,60.60
2018-02-27T21:50:12.047Z,65.93
2018-02-27T21:52:39.531Z,49.30
2018-02-27T21:55:07.024Z,55.13
2018-02-27T21:57:34.488Z,48.23
2018-02-27T22:00:01.980Z,43.10
2018-02-27T22:02:29.464Z,33.97
2018-02-27T22:04:57.941Z,32.33
2018-02-27T22:07:25.414Z,32.57
2018-02-27T22:09:52.893Z,29.13
2018-02-27T22:12:20.365Z,29.40
2018-02-27T22:14:48.611Z,30.13
2018-02-27T22:17:16.107Z,29.03
2018-02-27T22:19:44.374Z,30.23
2018-02-27T22:22:11.884Z,32.63
2018-02-27T22:24:39.396Z,32.43
2018-02-27T22:27:06.877Z,29.50
2018-02-27T22:29:35.131Z,31.60
2018-02-27T22:32:02.610Z,30.90
2018-02-27T22:34:30.098Z,31.73
2018-02-27T22:36:58.333Z,33.10
2018-02-27T22:39:25.806Z,32.57
2018-02-27T22:41:53.274Z,32.00
2018-02-27T22:44:20.826Z,37.23
2018-02-27T22:46:48.300Z,36.80
2018-02-27T22:49:15.765Z,35.63
2018-02-27T22:51:43.239Z,36.27
2018-02-27T22:54:11.528Z,32.50
2018-02-27T22:56:39.835Z,33.13
2018-02-27T22:59:07.298Z,35.90
2018-02-27T23:01:35.573Z,33.70
2018-02-27T23:04:03.049Z,32.03
2018-02-27T23:06:31.307Z,32.23
2018-02-27T23:08:58.815Z,33.03
2018-02-27T23:11:26.282Z,29.83
2018-02-27T23:13:53.760Z,31.20
2018-02-27T23:16:21.289Z,28.87
2018-02-27T23:18:48.716Z,32.37
2018-02-27T23:21:16.189Z,30.40
2018-02-27T23:23:45.325Z,32.63
2018-02-27T23:26:13.782Z,30.27
2018-02-27T23:28:42.064Z,31.47
2018-02-27T23:31:12.045Z,31.57
2018-02-27T23:33:40.801Z,32.63
2018-02-27T23:36:08.278Z,34.23
2018-02-27T23:38:35.783Z,33.83
2018-02-27T23:41:03.331Z,32.63
2018-02-27T23:43:30.836Z,31.53
2018-02-27T23:45:59.089Z,35.53
2018-02-27T23:48:26.562Z,34.17
2018-02-27T23:50:54.043Z,35.50
2018-02-27T23:53:22.275Z,32.07
2018-02-27T23:55:49.797Z,34.27
2018-02-27T23:58:17.296Z,37.90
